Little Compton, Rhode Island
Current Conditions -  °F | °C
As of 10:53 AM on Friday 28 Nov 2014 (Local Time) from KUUU Reporting Station
Few Clouds Few Clouds  
Wind Chill: 28°   Ceiling: Unl
Heat Index: 37°   Visibility: 10mi
Dew Point: 23°   Wind: 16mph
Humidity: 57%   Direction: 330°NNW
Pressure: 30.04"   Gusts: 26mph
Location:  41.51°N, 71.17°W
Report Text: KUUU 281553Z AUTO 33014G23KT 10SM FEW028 03/M05 A3004 RMK AO2 SLP174 T00281050
Loading
Personal Weather Stations






























Interactive Weather Map New forecast layout! Learn more

10-Day Weather Forecast

Advertisements
Track Severe Weather on mobile